Aviation Digital Data Service (ADDS)

Output produced by METARs form (1309 UTC 15 November 2018)
found at http://www.aviationweather.gov/metar/data/
 
TAF MSLP 150925Z 1512/1612 02015G30KT 9999 FEW043 TX34/1518Z TN25/1612Z
       
TAF MSSS 150925Z 1512/1612 01015G25KT 9999 FEW043 TX30/1518Z TN17/1612Z